Time;durP1;ratioP1;P1;durP2;ratioP2;P2;SDS_P1;SDS_P2;PMS_P1;PMS_P2;Temp;Humidity;BMP_temperature;BMP_pressure;BME280_temperature;BME280_humidity;BME280_pressure;Samples;Min_cycle;Max_cycle;Signal;HPM_P1;HPM_P2
2022/02/12 00:00:32;;;;;;;10.80;5.93;;;;;;;-2.36;99.41;97050.00;5053853;28;20253;-78
2022/02/12 00:02:57;;;;;;;9.77;5.60;;;;;;;-2.43;100.00;97043.38;5035372;28;20277;-78
2022/02/12 00:05:24;;;;;;;12.27;6.07;;;;;;;-2.48;100.00;97035.81;5035865;28;20614;-77
2022/02/12 00:07:50;;;;;;;14.33;5.60;;;;;;;-2.50;99.85;97034.19;5051517;28;20229;-78
2022/02/12 00:10:15;;;;;;;10.57;5.97;;;;;;;-2.51;100.00;97032.53;5035360;28;20269;-78
2022/02/12 00:12:40;;;;;;;14.17;6.03;;;;;;;-2.51;100.00;97035.91;5052351;28;20639;-78
2022/02/12 00:15:06;;;;;;;10.20;5.27;;;;;;;-2.54;100.00;97030.06;5051392;28;20214;-78
2022/02/12 00:17:32;;;;;;;7.87;5.37;;;;;;;-2.48;100.00;97024.81;5035426;28;20187;-78
2022/02/12 00:19:58;;;;;;;10.77;5.53;;;;;;;-2.39;100.00;97027.16;5051444;28;20209;-78
2022/02/12 00:22:23;;;;;;;15.73;5.50;;;;;;;-2.43;100.00;97028.09;5050741;28;20666;-77
2022/02/12 00:24:48;;;;;;;11.73;5.30;;;;;;;-2.42;100.00;97022.97;5051503;28;20651;-78
2022/02/12 00:27:14;;;;;;;10.83;5.97;;;;;;;-2.34;100.00;97021.09;5051322;28;20649;-77
2022/02/12 00:29:39;;;;;;;11.23;5.80;;;;;;;-2.43;100.00;97018.78;5050948;28;20182;-79
2022/02/12 00:32:05;;;;;;;7.80;5.57;;;;;;;-2.37;99.97;97017.81;5034245;28;20219;-79
2022/02/12 00:34:30;;;;;;;10.83;5.33;;;;;;;-2.46;100.00;97013.75;5034599;28;20186;-78
2022/02/12 00:36:55;;;;;;;11.27;5.83;;;;;;;-2.49;100.00;97013.81;5034214;28;20183;-77
2022/02/12 00:39:21;;;;;;;8.73;5.33;;;;;;;-2.49;99.95;97012.97;5050064;28;20305;-77
2022/02/12 00:41:46;;;;;;;11.27;5.10;;;;;;;-2.52;99.86;97007.97;5032687;28;20262;-77
2022/02/12 00:44:11;;;;;;;9.83;5.23;;;;;;;-2.58;100.00;97007.22;5050024;28;20177;-77
2022/02/12 00:46:37;;;;;;;7.20;4.67;;;;;;;-2.62;100.00;97009.88;5033697;28;20216;-77
2022/02/12 00:49:06;;;;;;;9.13;4.13;;;;;;;-2.63;100.00;97011.56;5051108;28;21020;-77
2022/02/12 00:51:31;;;;;;;9.67;4.60;;;;;;;-2.66;100.00;97015.84;5053284;28;20256;-77
2022/02/12 00:53:57;;;;;;;8.20;4.43;;;;;;;-2.66;100.00;97011.63;5055102;28;20207;-77
2022/02/12 00:56:22;;;;;;;7.07;4.70;;;;;;;-2.65;100.00;97018.41;5055609;28;20263;-78
2022/02/12 00:58:48;;;;;;;8.33;4.87;;;;;;;-2.69;100.00;97006.59;5055844;28;20604;-77
2022/02/12 01:01:13;;;;;;;7.43;4.37;;;;;;;-2.67;100.00;97009.09;5054911;28;20202;-78
2022/02/12 01:03:38;;;;;;;8.83;5.30;;;;;;;-2.69;100.00;97006.59;5056443;28;20184;-76
2022/02/12 01:06:04;;;;;;;7.97;4.80;;;;;;;-2.71;100.00;97015.97;5054970;28;20187;-78
2022/02/12 01:08:30;;;;;;;13.87;5.37;;;;;;;-2.75;100.00;97003.34;5053998;28;20271;-78
2022/02/12 01:10:55;;;;;;;10.20;4.87;;;;;;;-2.76;100.00;97004.22;5038678;28;20201;-77
2022/02/12 01:13:20;;;;;;;10.83;4.50;;;;;;;-2.80;100.00;97000.91;5055529;28;20179;-79
2022/02/12 01:15:45;;;;;;;8.50;4.53;;;;;;;-2.80;100.00;96998.38;5056685;28;20245;-77
2022/02/12 01:18:11;;;;;;;7.90;4.10;;;;;;;-2.77;100.00;96992.38;5055086;28;20649;-78
2022/02/12 01:20:39;;;;;;;9.23;4.43;;;;;;;-2.76;100.00;96994.88;5054242;28;20206;-78
2022/02/12 01:23:04;;;;;;;7.10;4.30;;;;;;;-2.74;100.00;96994.84;5044888;28;20212;-78
2022/02/12 01:25:29;;;;;;;10.23;4.53;;;;;;;-2.75;100.00;96994.00;5034779;28;20173;-78
2022/02/12 01:27:55;;;;;;;7.27;4.13;;;;;;;-2.73;100.00;96988.91;5047561;28;20209;-78
2022/02/12 01:30:20;;;;;;;12.40;4.37;;;;;;;-2.66;100.00;96993.81;5034417;28;20245;-78
2022/02/12 01:32:45;;;;;;;8.47;4.53;;;;;;;-2.72;100.00;96990.59;5034310;28;20192;-78
2022/02/12 01:35:12;;;;;;;8.40;4.50;;;;;;;-2.69;100.00;96991.34;5034819;28;20677;-79
2022/02/12 01:37:38;;;;;;;9.70;4.17;;;;;;;-2.71;100.00;96998.19;5035104;28;20626;-76
2022/02/12 01:40:05;;;;;;;9.93;4.43;;;;;;;-2.67;100.00;96992.13;5047781;28;20203;-78
2022/02/12 01:42:30;;;;;;;10.23;3.93;;;;;;;-2.70;100.00;96984.59;5034389;28;20184;-78
2022/02/12 01:44:56;;;;;;;9.63;4.67;;;;;;;-2.73;100.00;96988.91;5034969;28;20196;-78
2022/02/12 01:47:21;;;;;;;9.70;4.37;;;;;;;-2.74;100.00;96987.22;5018755;28;20244;-78
2022/02/12 01:49:46;;;;;;;10.77;4.57;;;;;;;-2.75;100.00;96991.47;5052165;28;20188;-78
2022/02/12 01:52:13;;;;;;;8.00;4.70;;;;;;;-2.69;99.88;96985.41;5034684;28;20689;-78
2022/02/12 01:54:39;;;;;;;8.63;4.37;;;;;;;-2.66;100.00;96985.34;5035127;28;20216;-78
2022/02/12 01:57:05;;;;;;;11.97;5.10;;;;;;;-2.65;99.96;96982.78;5018663;28;20190;-78
2022/02/12 01:59:31;;;;;;;10.63;4.37;;;;;;;-2.62;99.96;96982.72;5034857;28;20184;-78
2022/02/12 02:01:57;;;;;;;10.93;4.93;;;;;;;-2.67;99.45;96979.44;5033843;28;20195;-78
2022/02/12 02:04:23;;;;;;;10.80;5.57;;;;;;;-2.71;99.88;96982.91;5034981;28;20178;-78
2022/02/12 02:06:48;;;;;;;6.40;4.30;;;;;;;-2.74;99.78;96977.91;5034822;28;20184;-78
2022/02/12 02:09:15;;;;;;;11.00;5.10;;;;;;;-2.76;100.00;96978.78;5036384;28;20306;-78
2022/02/12 02:11:41;;;;;;;7.60;5.03;;;;;;;-2.72;100.00;96970.25;5034945;28;20201;-78
2022/02/12 02:14:07;;;;;;;11.30;5.50;;;;;;;-2.75;99.74;96966.03;5035212;28;20218;-78
2022/02/12 02:16:32;;;;;;;7.93;5.07;;;;;;;-2.75;99.75;96968.56;5051466;28;20241;-78
2022/02/12 02:18:58;;;;;;;9.33;5.17;;;;;;;-2.79;99.99;96963.59;5055545;28;20195;-78
2022/02/12 02:21:26;;;;;;;10.30;6.60;;;;;;;-2.76;99.90;96951.66;5055155;28;20190;-77
2022/02/12 02:23:51;;;;;;;8.33;5.47;;;;;;;-2.77;99.57;96961.84;5055228;28;20177;-78
2022/02/12 02:26:17;;;;;;;8.00;4.40;;;;;;;-2.80;99.75;96957.69;5055212;28;20552;-78
2022/02/12 02:28:42;;;;;;;9.87;5.27;;;;;;;-2.78;99.41;96950.03;5056793;28;20562;-77
2022/02/12 02:31:08;;;;;;;12.23;5.20;;;;;;;-2.71;99.74;96957.50;5056055;28;20203;-77
2022/02/12 02:33:33;;;;;;;12.17;5.60;;;;;;;-2.80;99.89;96949.22;5055472;28;20670;-78
2022/02/12 02:35:59;;;;;;;9.77;4.83;;;;;;;-2.78;99.40;96945.78;5038037;28;20210;-78
2022/02/12 02:38:24;;;;;;;12.43;4.87;;;;;;;-2.82;99.49;96941.63;5054822;28;20180;-77
2022/02/12 02:40:52;;;;;;;10.87;4.90;;;;;;;-2.80;99.60;96939.06;5037880;28;20202;-77
2022/02/12 02:43:18;;;;;;;11.13;5.20;;;;;;;-2.81;99.67;96939.94;5053967;28;20175;-77
2022/02/12 02:45:43;;;;;;;8.47;6.30;;;;;;;-2.83;99.60;96936.56;5055459;28;20181;-77
2022/02/12 02:48:08;;;;;;;12.60;5.30;;;;;;;-2.87;99.66;96938.34;5056609;28;20210;-77
2022/02/12 02:56:04;;;;;;;10.33;5.20;;;;;;;-2.92;99.95;96929.97;5054394;28;20211;-78
2022/02/12 02:58:33;;;;;;;9.17;5.27;;;;;;;-2.83;99.68;96934.00;5037391;28;20183;-77
2022/02/12 03:00:59;;;;;;;8.33;5.13;;;;;;;-2.88;99.59;96922.25;5054947;28;20218;-77
2022/02/12 03:03:25;;;;;;;10.03;5.33;;;;;;;-2.88;99.45;96921.41;5053449;28;20177;-78
2022/02/12 03:05:50;;;;;;;9.83;5.37;;;;;;;-2.94;99.69;96916.44;5055188;28;20200;-78
2022/02/12 03:08:16;;;;;;;10.80;6.00;;;;;;;-2.96;99.75;96920.75;5053277;28;20607;-78
2022/02/12 03:10:41;;;;;;;10.37;5.50;;;;;;;-3.01;100.00;96909.81;5037403;28;20198;-78
2022/02/12 03:13:06;;;;;;;13.80;5.77;;;;;;;-3.05;99.95;96910.78;5055099;28;20667;-77
2022/02/12 03:15:31;;;;;;;14.30;6.23;;;;;;;-3.09;100.00;96909.16;5055517;28;20668;-77
2022/02/12 03:17:57;;;;;;;13.80;6.33;;;;;;;-3.10;100.00;96904.94;5037505;28;20234;-78
2022/02/12 03:20:22;;;;;;;11.13;5.67;;;;;;;-3.07;100.00;96905.72;5055131;28;20660;-77
2022/02/12 03:22:47;;;;;;;9.73;6.17;;;;;;;-3.00;99.77;96903.91;5053177;28;20676;-78
2022/02/12 03:25:13;;;;;;;10.30;5.93;;;;;;;-3.08;100.00;96903.22;5054975;28;20174;-78
2022/02/12 03:27:38;;;;;;;8.50;6.23;;;;;;;-3.07;100.00;96898.09;5053673;28;20669;-77
2022/02/12 03:30:04;;;;;;;11.93;6.47;;;;;;;-3.08;100.00;96896.44;5037041;28;20206;-77
2022/02/12 03:32:30;;;;;;;15.07;6.80;;;;;;;-3.01;100.00;96902.19;5055007;28;20178;-78
2022/02/12 03:34:56;;;;;;;14.23;6.60;;;;;;;-2.96;99.76;96908.03;5056213;28;20197;-76
2022/02/12 03:37:26;;;;;;;14.60;6.67;;;;;;;-3.09;99.96;96898.97;5056366;28;20289;-78
2022/02/12 03:39:51;;;;;;;14.37;6.83;;;;;;;-3.15;100.00;96898.25;5056568;28;20536;-78
2022/02/12 03:42:16;;;;;;;15.67;6.90;;;;;;;-3.17;100.00;96897.47;5055504;28;20177;-78
2022/02/12 03:44:43;;;;;;;12.43;7.47;;;;;;;-3.18;100.00;96893.25;5038596;28;20185;-77
2022/02/12 03:47:08;;;;;;;14.47;6.87;;;;;;;-3.16;100.00;96885.59;5036631;28;20793;-77
2022/02/12 03:49:33;;;;;;;11.67;7.27;;;;;;;-3.22;100.00;96889.09;5052425;28;20170;-75
2022/02/12 03:51:58;;;;;;;10.17;6.43;;;;;;;-3.06;100.00;96888.78;5035235;28;20217;-77
2022/02/12 03:54:24;;;;;;;14.80;7.20;;;;;;;-3.11;100.00;96875.31;5035501;28;20609;-77
2022/02/12 03:56:49;;;;;;;16.13;7.10;;;;;;;-3.13;100.00;96883.81;5053224;28;20220;-77
2022/02/12 03:59:14;;;;;;;11.50;6.80;;;;;;;-3.14;100.00;96871.97;5051993;28;20170;-78
2022/02/12 04:01:40;;;;;;;11.10;6.53;;;;;;;-3.15;100.00;96872.84;5047027;28;20227;-77
2022/02/12 04:04:05;;;;;;;13.93;6.83;;;;;;;-3.18;100.00;96870.38;5015154;28;20178;-77
2022/02/12 04:06:30;;;;;;;13.77;6.93;;;;;;;-3.17;100.00;96866.13;5031413;28;20171;-78
2022/02/12 04:08:55;;;;;;;12.33;7.03;;;;;;;-3.08;100.00;96862.56;5033588;28;20222;-77
2022/02/12 04:11:21;;;;;;;12.23;6.70;;;;;;;-3.10;100.00;96854.09;5033309;28;20194;-77
2022/02/12 04:13:47;;;;;;;9.77;6.50;;;;;;;-3.11;100.00;96848.19;5015998;28;20186;-77
2022/02/12 04:16:12;;;;;;;12.83;6.97;;;;;;;-3.16;100.00;96848.31;5032007;28;20195;-78
2022/02/12 04:18:38;;;;;;;11.70;8.00;;;;;;;-3.19;100.00;96848.34;5015202;28;20178;-77
2022/02/12 04:21:03;;;;;;;10.80;7.17;;;;;;;-3.14;100.00;96860.97;5015706;28;20201;-77
2022/02/12 04:23:29;;;;;;;11.10;6.57;;;;;;;-3.16;100.00;96852.56;5032098;28;20677;-78
2022/02/12 04:25:54;;;;;;;16.23;8.23;;;;;;;-3.20;100.00;96841.59;5032146;28;20202;-78
2022/02/12 04:28:19;;;;;;;12.17;7.43;;;;;;;-3.16;100.00;96843.22;5032015;28;20205;-78
2022/02/12 04:30:45;;;;;;;10.97;7.33;;;;;;;-3.19;100.00;96840.72;5032104;28;20186;-78
2022/02/12 04:33:11;;;;;;;13.03;7.77;;;;;;;-3.23;100.00;96840.84;5014741;28;20534;-77
2022/02/12 04:35:37;;;;;;;17.80;7.50;;;;;;;-3.28;100.00;96838.38;5015371;28;20199;-78
2022/02/12 04:38:03;;;;;;;13.30;7.67;;;;;;;-3.30;100.00;96832.50;5025644;28;20179;-77
2022/02/12 04:40:28;;;;;;;10.97;7.80;;;;;;;-3.26;100.00;96831.59;5043038;28;20213;-77
2022/02/12 04:42:54;;;;;;;14.80;7.47;;;;;;;-3.29;100.00;96816.41;5041332;28;20179;-76
2022/02/12 04:45:20;;;;;;;17.87;7.10;;;;;;;-3.32;100.00;96819.00;5038587;28;20663;-77
2022/02/12 04:47:45;;;;;;;15.80;6.83;;;;;;;-3.29;100.00;96813.84;5023699;28;20179;-77
2022/02/12 04:50:10;;;;;;;13.70;6.63;;;;;;;-3.26;100.00;96820.59;5038143;28;20239;-76
2022/02/12 04:52:36;;;;;;;16.60;6.37;;;;;;;-3.25;100.00;96805.31;5037892;28;20183;-77
2022/02/12 04:55:01;;;;;;;14.50;6.77;;;;;;;-3.25;100.00;96814.66;5036027;28;20226;-76
2022/02/12 04:57:27;;;;;;;10.80;7.07;;;;;;;-3.25;100.00;96812.09;5015392;28;20179;-76
2022/02/12 04:59:52;;;;;;;18.13;7.00;;;;;;;-3.25;100.00;96810.41;5015760;28;20174;-76
2022/02/12 05:02:18;;;;;;;10.90;6.43;;;;;;;-3.22;100.00;96806.94;5030764;28;20203;-76
2022/02/12 05:04:44;;;;;;;14.80;6.77;;;;;;;-3.21;100.00;96801.81;5016921;28;20528;-77
2022/02/12 05:07:10;;;;;;;16.73;5.80;;;;;;;-3.04;100.00;96803.16;5032577;28;20182;-77
2022/02/12 05:09:37;;;;;;;11.13;6.57;;;;;;;-3.14;100.00;96803.38;5014427;28;20274;-77
2022/02/12 05:12:04;;;;;;;17.67;6.13;;;;;;;-3.21;100.00;96801.00;5030543;28;20239;-77
2022/02/12 05:14:31;;;;;;;13.00;6.47;;;;;;;-3.26;100.00;96795.19;5013689;28;20541;-77
2022/02/12 05:16:59;;;;;;;11.97;5.73;;;;;;;-3.24;100.00;96801.91;5030567;28;20174;-77
2022/02/12 05:19:25;;;;;;;14.30;6.20;;;;;;;-3.29;100.00;96801.16;5030863;28;20183;-77
2022/02/12 05:21:50;;;;;;;16.73;6.47;;;;;;;-3.29;100.00;96798.63;5030709;28;20194;-77
2022/02/12 05:24:16;;;;;;;12.47;6.97;;;;;;;-3.32;100.00;96801.22;5014254;28;20188;-77
2022/02/12 05:26:41;;;;;;;11.90;6.27;;;;;;;-3.35;100.00;96801.31;5030554;28;20187;-77
2022/02/12 05:29:06;;;;;;;15.60;8.07;;;;;;;-3.32;100.00;96801.22;5014737;28;20186;-78
2022/02/12 05:31:32;;;;;;;14.20;7.37;;;;;;;-3.34;100.00;96794.53;5031251;28;20250;-77
2022/02/12 05:33:57;;;;;;;13.13;6.60;;;;;;;-3.32;100.00;96795.31;5015400;28;20182;-77
2022/02/12 05:36:23;;;;;;;14.10;6.63;;;;;;;-3.38;100.00;96791.19;5035435;28;20218;-80
2022/02/12 05:38:48;;;;;;;13.97;7.17;;;;;;;-3.42;100.00;96787.06;5019781;28;20184;-77
2022/02/12 05:41:14;;;;;;;17.23;7.27;;;;;;;-3.41;100.00;96781.13;5038134;28;20561;-76
2022/02/12 05:43:40;;;;;;;13.97;6.47;;;;;;;-3.43;100.00;96776.06;5036749;28;20204;-79
2022/02/12 05:46:05;;;;;;;16.00;6.77;;;;;;;-3.41;100.00;96770.94;5038054;28;20187;-79
2022/02/12 05:48:31;;;;;;;18.10;8.03;;;;;;;-3.47;100.00;96776.16;5022552;28;20178;-79
2022/02/12 05:50:57;;;;;;;12.73;6.67;;;;;;;-3.45;100.00;96772.72;5038238;28;20348;-79
2022/02/12 05:53:23;;;;;;;15.33;7.60;;;;;;;-3.45;100.00;96765.09;5041231;28;20182;-76
2022/02/12 05:55:48;;;;;;;12.33;7.10;;;;;;;-3.33;100.00;96768.25;5031564;28;20215;-78
2022/02/12 05:58:14;;;;;;;15.67;8.17;;;;;;;-3.31;100.00;96767.34;5045974;28;20195;-78
2022/02/12 06:00:39;;;;;;;16.03;7.10;;;;;;;-3.27;100.00;96771.50;5050968;28;20212;-78
2022/02/12 06:03:04;;;;;;;14.30;6.83;;;;;;;-3.26;100.00;96757.94;5034573;28;20899;-78
2022/02/12 06:05:30;;;;;;;13.40;6.73;;;;;;;-3.33;100.00;96769.09;5019227;28;20271;-78
2022/02/12 06:07:55;;;;;;;16.17;7.77;;;;;;;-3.38;100.00;96758.19;5021073;28;20194;-78
2022/02/12 06:10:25;;;;;;;13.97;7.60;;;;;;;-3.39;100.00;96760.75;5038340;28;20668;-78
2022/02/12 06:12:51;;;;;;;14.30;7.87;;;;;;;-3.37;100.00;96767.47;5023180;28;20240;-78
2022/02/12 06:15:16;;;;;;;15.37;7.13;;;;;;;-3.30;100.00;96763.91;5040313;28;20203;-78
2022/02/12 06:17:41;;;;;;;18.63;7.40;;;;;;;-3.40;100.00;96759.09;5039193;28;20270;-78
2022/02/12 06:20:07;;;;;;;17.13;7.70;;;;;;;-3.41;100.00;96763.34;5020586;28;20214;-78
2022/02/12 06:22:33;;;;;;;15.23;7.97;;;;;;;-3.42;100.00;96759.97;5021444;28;20190;-79
2022/02/12 06:24:59;;;;;;;11.87;7.53;;;;;;;-3.48;100.00;96759.25;5039345;28;20270;-77
2022/02/12 06:27:25;;;;;;;14.40;7.77;;;;;;;-3.52;100.00;96757.66;5035964;28;20240;-77
2022/02/12 06:29:50;;;;;;;13.53;8.03;;;;;;;-3.55;100.00;96753.47;5020161;28;20193;-77
2022/02/12 06:32:15;;;;;;;13.77;7.40;;;;;;;-3.45;100.00;96754.09;5034748;28;20612;-77
2022/02/12 06:34:41;;;;;;;16.47;7.67;;;;;;;-3.44;100.00;96755.78;5028805;28;20190;-79
2022/02/12 06:37:06;;;;;;;16.27;7.67;;;;;;;-3.42;100.00;96754.88;5037661;28;20189;-80
2022/02/12 06:39:32;;;;;;;13.87;8.00;;;;;;;-3.37;100.00;96759.84;5037741;28;20279;-77
2022/02/12 06:41:57;;;;;;;19.27;7.97;;;;;;;-3.40;100.00;96762.47;5054562;28;20664;-78
2022/02/12 06:44:22;;;;;;;20.23;8.77;;;;;;;-3.41;100.00;96760.78;5036166;28;20651;-78
2022/02/12 06:46:49;;;;;;;15.63;7.60;;;;;;;-3.41;100.00;96760.78;5052823;28;20233;-78
2022/02/12 06:49:14;;;;;;;20.17;8.03;;;;;;;-3.44;100.00;96766.78;5053377;28;20180;-78
2022/02/12 06:51:40;;;;;;;16.80;8.33;;;;;;;-3.39;100.00;96760.75;5035564;28;20300;-78
2022/02/12 06:54:05;;;;;;;12.33;8.03;;;;;;;-3.37;100.00;96757.31;5051655;28;20182;-80
2022/02/12 06:56:30;;;;;;;17.60;8.20;;;;;;;-3.36;100.00;96758.13;5052867;28;20233;-78
2022/02/12 06:58:56;;;;;;;16.90;7.70;;;;;;;-3.34;100.00;96757.25;5052974;28;20182;-78
2022/02/12 07:01:23;;;;;;;19.47;8.37;;;;;;;-3.33;100.00;96758.09;5035193;28;20209;-79
2022/02/12 07:03:48;;;;;;;17.67;8.30;;;;;;;-3.34;100.00;96753.88;5052833;28;20178;-78
2022/02/12 07:06:13;;;;;;;15.90;8.27;;;;;;;-3.23;100.00;96759.53;5036189;28;20200;-80
2022/02/12 07:08:39;;;;;;;17.00;8.30;;;;;;;-3.25;100.00;96758.75;5035994;28;20182;-80
2022/02/12 07:11:04;;;;;;;17.20;9.07;;;;;;;-3.30;100.00;96763.91;5036200;28;20205;-78
2022/02/12 07:13:29;;;;;;;17.20;8.37;;;;;;;-3.24;100.00;96760.41;5035166;28;20564;-78
2022/02/12 07:15:56;;;;;;;15.47;7.90;;;;;;;-3.20;100.00;96765.38;5052777;28;20217;-78
2022/02/12 07:18:21;;;;;;;15.10;8.80;;;;;;;-3.22;100.00;96758.69;5053252;28;20635;-78
2022/02/12 07:20:46;;;;;;;16.33;8.97;;;;;;;-3.17;100.00;96762.78;5052123;28;20230;-78
2022/02/12 07:23:12;;;;;;;18.93;9.93;;;;;;;-3.14;100.00;96764.41;5052194;28;20186;-78
2022/02/12 07:25:37;;;;;;;14.73;9.00;;;;;;;-3.11;100.00;96750.81;5052196;28;20181;-80
2022/02/12 07:28:02;;;;;;;18.70;9.00;;;;;;;-3.01;100.00;96759.88;5035154;28;20186;-78
2022/02/12 07:30:28;;;;;;;20.37;8.60;;;;;;;-3.03;100.00;96762.47;5054063;28;20202;-78
2022/02/12 07:32:53;;;;;;;22.50;8.87;;;;;;;-3.05;100.00;96748.97;5050424;28;20185;-78
2022/02/12 07:35:18;;;;;;;13.97;7.90;;;;;;;-2.94;100.00;96749.53;5035043;28;20216;-77
2022/02/12 07:37:47;;;;;;;19.40;8.50;;;;;;;-2.91;100.00;96753.72;5035016;28;20268;-77
2022/02/12 07:40:14;;;;;;;15.30;8.20;;;;;;;-2.86;99.93;96742.56;5052236;28;20225;-79
2022/02/12 07:42:39;;;;;;;15.53;8.43;;;;;;;-2.80;98.97;96738.22;5051761;28;20185;-79
2022/02/12 07:45:05;;;;;;;17.60;8.73;;;;;;;-2.74;99.75;96748.22;5035839;28;20178;-79
2022/02/12 07:47:31;;;;;;;18.03;8.53;;;;;;;-2.62;99.39;96743.66;5052695;28;20235;-78
2022/02/12 07:49:56;;;;;;;17.30;8.13;;;;;;;-2.58;99.09;96752.88;5052647;28;20182;-78
2022/02/12 07:52:21;;;;;;;14.07;8.33;;;;;;;-2.60;98.33;96746.16;5051441;28;20181;-77
2022/02/12 07:54:47;;;;;;;15.43;8.53;;;;;;;-2.52;98.54;96753.59;5051496;28;20181;-78
2022/02/12 07:57:13;;;;;;;16.90;8.27;;;;;;;-2.45;98.89;96747.50;5035230;28;20590;-78
2022/02/12 07:59:38;;;;;;;15.23;8.27;;;;;;;-2.44;97.95;96755.06;5050771;28;20186;-77
2022/02/12 08:02:04;;;;;;;17.50;7.83;;;;;;;-2.32;98.26;96746.28;5050353;28;20212;-77
2022/02/12 08:04:29;;;;;;;19.57;8.50;;;;;;;-2.31;98.00;96745.41;5034147;28;20182;-78
2022/02/12 08:09:39;;;;;;;16.40;7.63;;;;;;;-2.29;97.27;96757.22;5052490;28;20541;-77
2022/02/12 08:12:13;;;;;;;19.63;8.20;;;;;;;-2.22;97.44;96752.78;5050902;28;20615;-78
2022/02/12 08:14:43;;;;;;;15.40;7.77;;;;;;;-2.15;97.43;96758.56;5052185;28;20267;-79
2022/02/12 08:17:09;;;;;;;18.17;8.83;;;;;;;-2.17;97.22;96756.06;5052193;28;20740;-77
2022/02/12 08:19:35;;;;;;;18.23;7.87;;;;;;;-2.05;96.63;96760.81;5051259;28;20182;-78
2022/02/12 08:22:00;;;;;;;15.63;8.97;;;;;;;-2.07;96.34;96762.56;5050744;28;20193;-77
2022/02/12 08:24:26;;;;;;;19.77;8.53;;;;;;;-1.99;96.40;96762.38;5053086;28;20194;-79
2022/02/12 08:26:51;;;;;;;22.33;9.00;;;;;;;-1.97;96.26;96757.22;5052848;28;20174;-79
2022/02/12 08:29:16;;;;;;;16.70;8.23;;;;;;;-2.00;96.36;96756.44;5050684;28;20170;-77
2022/02/12 08:31:42;;;;;;;14.47;7.80;;;;;;;-1.87;95.47;96753.53;5049602;28;20190;-77
2022/02/12 08:34:07;;;;;;;19.13;8.27;;;;;;;-1.85;95.61;96749.28;5049322;28;20179;-77
2022/02/12 08:36:33;;;;;;;16.70;7.87;;;;;;;-1.75;95.02;96746.41;5051487;28;20214;-77
2022/02/12 08:38:58;;;;;;;14.40;7.30;;;;;;;-1.77;94.87;96737.13;5050167;28;20404;-77
2022/02/12 08:41:24;;;;;;;16.67;7.83;;;;;;;-1.62;94.02;96739.22;5050671;28;20202;-78
2022/02/12 08:43:49;;;;;;;12.30;7.27;;;;;;;-1.56;94.45;96730.59;5033609;28;20179;-77
2022/02/12 08:46:14;;;;;;;16.97;7.17;;;;;;;-1.55;94.00;96738.19;5050865;28;20175;-78
2022/02/12 08:48:40;;;;;;;14.97;7.50;;;;;;;-1.47;93.41;96733.69;5052232;28;20185;-78
2022/02/12 08:51:07;;;;;;;17.97;7.70;;;;;;;-1.45;93.05;96733.66;5050068;28;20205;-77
2022/02/12 08:53:32;;;;;;;14.90;8.20;;;;;;;-1.39;92.93;96741.13;5050253;28;20610;-77
2022/02/12 08:55:58;;;;;;;17.23;7.67;;;;;;;-1.28;92.42;96740.78;5034397;28;20206;-77
2022/02/12 08:58:23;;;;;;;16.90;8.27;;;;;;;-1.19;91.78;96737.94;5049948;28;20675;-78
2022/02/12 09:00:49;;;;;;;16.00;7.50;;;;;;;-1.08;92.13;96735.06;5050190;28;20194;-77
2022/02/12 09:03:15;;;;;;;11.73;6.77;;;;;;;-1.03;90.88;96734.03;5049563;28;20197;-77
2022/02/12 09:05:41;;;;;;;14.13;7.20;;;;;;;-0.97;90.52;96738.09;5051676;28;20217;-77
2022/02/12 09:08:06;;;;;;;16.83;7.37;;;;;;;-0.86;89.99;96730.97;5053168;28;20263;-77
2022/02/12 09:10:32;;;;;;;16.27;7.00;;;;;;;-0.81;90.51;96723.16;5037888;28;20285;-78
2022/02/12 09:12:57;;;;;;;16.33;7.17;;;;;;;-0.71;89.85;96724.50;5037172;28;20562;-77
2022/02/12 09:15:23;;;;;;;12.43;6.67;;;;;;;-0.71;89.80;96721.97;5054588;28;20684;-77
2022/02/12 09:17:48;;;;;;;10.70;6.30;;;;;;;-0.53;89.13;96718.81;5053809;28;20170;-77
2022/02/12 09:20:14;;;;;;;9.97;6.60;;;;;;;-0.50;89.15;96723.81;5037895;28;20286;-78
2022/02/12 09:22:39;;;;;;;14.63;7.63;;;;;;;-0.41;89.56;96715.84;5053914;28;20328;-78
2022/02/12 09:25:06;;;;;;;16.90;7.03;;;;;;;-0.33;87.67;96716.41;5037520;28;20666;-78
2022/02/12 09:27:32;;;;;;;15.73;7.80;;;;;;;-0.22;87.59;96712.66;5037682;28;20205;-78
2022/02/12 09:29:59;;;;;;;14.33;6.03;;;;;;;-0.09;87.82;96714.72;5054501;28;20227;-78
2022/02/12 09:32:24;;;;;;;10.30;6.67;;;;;;;0.00;86.14;96721.22;5053611;28;20544;-78
2022/02/12 09:34:50;;;;;;;12.37;5.70;;;;;;;0.09;84.57;96720.91;5052873;28;20228;-79
2022/02/12 09:37:15;;;;;;;12.37;5.77;;;;;;;0.12;84.22;96719.94;5053843;28;20202;-78
2022/02/12 09:39:40;;;;;;;9.43;5.87;;;;;;;0.11;83.32;96716.56;5054169;28;20208;-78
2022/02/12 09:42:06;;;;;;;15.20;5.33;;;;;;;0.12;82.22;96719.94;5037085;28;20304;-78
2022/02/12 09:44:31;;;;;;;12.57;5.17;;;;;;;0.21;82.64;96712.78;5054415;28;20211;-78
2022/02/12 09:47:20;;;;;;;9.07;5.43;;;;;;;0.26;81.11;96710.03;5037536;28;20184;-78
2022/02/12 09:49:45;;;;;;;12.27;5.50;;;;;;;0.24;81.97;96710.09;5054323;28;20181;-78
2022/02/12 09:52:11;;;;;;;11.30;6.23;;;;;;;0.42;80.87;96712.88;5036519;28;20196;-78
2022/02/12 09:54:37;;;;;;;9.57;6.20;;;;;;;0.51;80.29;96725.28;5053550;28;20704;-78
2022/02/12 09:57:05;;;;;;;9.10;6.00;;;;;;;0.56;80.15;96719.13;5054834;28;20185;-78
2022/02/12 09:59:30;;;;;;;9.30;4.97;;;;;;;0.62;77.80;96718.06;5053685;28;20188;-78
2022/02/12 10:01:55;;;;;;;14.73;7.33;;;;;;;0.65;77.33;96704.34;5053983;28;20295;-78
2022/02/12 10:04:21;;;;;;;10.13;5.20;;;;;;;0.67;77.37;96705.09;5053450;28;20188;-79
2022/02/12 10:06:47;;;;;;;10.70;4.10;;;;;;;0.74;76.29;96702.25;5036643;28;20254;-78
2022/02/12 10:09:12;;;;;;;9.77;4.43;;;;;;;0.76;76.37;96704.75;5055041;28;20212;-78
2022/02/12 10:11:45;;;;;;;10.33;4.50;;;;;;;0.85;75.08;96694.97;5058571;28;20224;-78
2022/02/12 10:14:16;;;;;;;9.63;4.43;;;;;;;0.83;75.04;96693.38;5058431;28;20192;-78
2022/02/12 10:17:02;;;;;;;7.43;3.77;;;;;;;0.90;74.73;96689.69;5059603;28;20340;-78
2022/02/12 10:19:38;;;;;;;6.57;4.10;;;;;;;0.88;76.30;96688.06;5060886;28;20203;-78
2022/02/12 10:22:11;;;;;;;7.27;4.23;;;;;;;1.06;74.56;96677.09;5056291;28;20209;-77
2022/02/12 10:24:54;;;;;;;8.43;4.73;;;;;;;1.03;73.51;96679.78;5055768;28;20182;-77
2022/02/12 10:27:24;;;;;;;14.07;5.60;;;;;;;1.05;74.71;96676.28;5039315;28;20209;-77
2022/02/12 10:29:51;;;;;;;14.70;7.10;;;;;;;1.12;74.80;96676.88;5056734;28;20652;-78
2022/02/12 10:32:19;;;;;;;13.17;6.67;;;;;;;1.17;74.75;96674.97;5039807;28;20221;-77
2022/02/12 10:34:46;;;;;;;10.90;5.07;;;;;;;1.21;73.63;96676.47;5038568;28;20186;-77
2022/02/12 10:37:12;;;;;;;13.50;4.50;;;;;;;1.27;73.34;96671.13;5055786;28;20181;-77
2022/02/12 10:39:51;;;;;;;6.43;3.80;;;;;;;1.32;71.87;96666.63;5055664;28;20182;-79
2022/02/12 10:42:17;;;;;;;9.03;5.27;;;;;;;1.39;70.60;96669.78;5040400;28;20555;-77
2022/02/12 10:44:44;;;;;;;10.40;4.20;;;;;;;1.38;70.51;96666.38;5057798;28;20170;-78
2022/02/12 10:47:11;;;;;;;9.77;4.93;;;;;;;1.39;70.77;96668.03;5058519;28;20189;-78
2022/02/12 10:49:37;;;;;;;9.93;4.73;;;;;;;1.50;69.83;96662.47;5059778;28;20261;-79
2022/02/12 10:52:02;;;;;;;8.73;4.40;;;;;;;1.59;70.55;96656.13;5058935;28;20291;-77
2022/02/12 10:54:27;;;;;;;9.43;3.83;;;;;;;1.66;69.01;96647.28;5063483;28;20533;-79
2022/02/12 10:56:55;;;;;;;7.57;4.33;;;;;;;1.79;69.94;96647.59;5058133;28;20209;-79
2022/02/12 10:59:22;;;;;;;8.43;4.47;;;;;;;1.76;69.35;96642.59;5056667;28;20659;-77
2022/02/12 11:01:48;;;;;;;8.67;4.27;;;;;;;1.90;67.55;96643.66;5055562;28;20200;-78
2022/02/12 11:04:18;;;;;;;8.37;4.10;;;;;;;1.94;66.90;96644.34;5060331;28;20189;-78
2022/02/12 11:06:47;;;;;;;7.77;4.13;;;;;;;1.86;66.79;96638.75;5059821;28;20253;-77
2022/02/12 11:09:13;;;;;;;8.70;4.50;;;;;;;1.98;67.54;96626.22;5057125;28;20540;-78
2022/02/12 11:11:39;;;;;;;9.20;4.53;;;;;;;2.04;67.84;96624.28;5036319;28;20213;-78
2022/02/12 11:14:06;;;;;;;9.03;4.83;;;;;;;2.14;67.88;96622.97;5036541;28;20182;-78
2022/02/12 11:16:31;;;;;;;7.03;3.73;;;;;;;2.21;67.03;96614.09;5052758;28;20244;-78
2022/02/12 11:18:57;;;;;;;6.80;3.90;;;;;;;2.38;66.46;96606.41;5052635;28;20181;-79
2022/02/12 11:21:24;;;;;;;9.43;3.90;;;;;;;2.37;65.73;96599.63;5052785;28;20224;-78
2022/02/12 11:24:02;;;;;;;7.60;4.43;;;;;;;2.31;64.32;96605.06;5054070;28;20284;-78
2022/02/12 11:26:27;;;;;;;6.90;3.70;;;;;;;2.36;64.24;96595.41;5052950;28;20189;-78